Time;durP1;ratioP1;P1;durP2;ratioP2;P2;SDS_P1;SDS_P2;PMS_P1;PMS_P2;Temp;Humidity;BMP_temperature;BMP_pressure;BME280_temperature;BME280_humidity;BME280_pressure;Samples;Min_cycle;Max_cycle;Signal;HPM_P1;HPM_P2
2024/01/27 00:02:12;;;;;;;35.03;11.02;;;;;;;4.96;80.24;101746.69;5036732;28;20103;-82
2024/01/27 00:04:39;;;;;;;39.35;12.80;;;;;;;4.93;80.58;101746.75;5035961;28;20057;-83
2024/01/27 00:07:06;;;;;;;38.05;13.38;;;;;;;4.93;80.85;101754.66;5023175;28;20048;-83
2024/01/27 00:09:33;;;;;;;44.08;13.45;;;;;;;4.97;80.71;101765.97;5046131;28;20052;-83
2024/01/27 00:12:00;;;;;;;44.28;13.63;;;;;;;4.99;80.50;101756.25;5004292;28;20061;-83
2024/01/27 00:14:27;;;;;;;37.97;12.43;;;;;;;5.00;80.70;101763.22;5035687;28;20129;-83
2024/01/27 00:16:54;;;;;;;49.63;14.52;;;;;;;4.94;81.00;101768.72;5045478;28;20076;-83
2024/01/27 00:19:21;;;;;;;44.92;14.18;;;;;;;4.98;80.68;101770.31;5039058;28;20058;-83
2024/01/27 00:21:48;;;;;;;43.58;15.10;;;;;;;4.96;80.94;101772.13;5046586;28;20046;-84
2024/01/27 00:24:14;;;;;;;32.88;12.48;;;;;;;4.94;81.05;101774.81;5031072;28;20060;-84
2024/01/27 00:26:43;;;;;;;32.08;13.27;;;;;;;4.82;81.08;101766.50;5045156;28;20538;-83
2024/01/27 00:29:10;;;;;;;31.52;12.68;;;;;;;4.75;81.42;101774.56;5034290;28;20396;-83
2024/01/27 00:31:36;;;;;;;40.35;13.38;;;;;;;4.78;80.56;101770.97;5046547;28;20136;-83
2024/01/27 00:34:03;;;;;;;38.78;13.77;;;;;;;4.69;79.90;101772.16;5053368;28;20432;-83
2024/01/27 00:36:30;;;;;;;33.53;12.13;;;;;;;4.69;81.39;101768.66;5046923;28;20048;-83
2024/01/27 00:38:57;;;;;;;30.27;12.63;;;;;;;4.65;81.35;101781.03;5056950;28;20053;-84
2024/01/27 00:41:24;;;;;;;29.67;13.65;;;;;;;4.63;80.67;101774.13;5025060;28;20480;-83
2024/01/27 00:43:51;;;;;;;30.30;11.25;;;;;;;4.66;80.33;101772.25;5005359;28;20049;-83
2024/01/27 00:46:17;;;;;;;25.40;10.85;;;;;;;4.70;79.99;101780.91;5038306;28;20681;-83
2024/01/27 00:48:44;;;;;;;29.30;10.48;;;;;;;4.75;80.09;101782.47;5017249;28;20120;-82
2024/01/27 00:51:11;;;;;;;24.80;8.85;;;;;;;4.69;80.63;101787.09;5021198;28;20137;-83
2024/01/27 00:53:38;;;;;;;13.48;7.22;;;;;;;4.71;80.57;101780.88;5047949;28;20053;-83
2024/01/27 00:56:05;;;;;;;15.73;7.25;;;;;;;4.67;80.45;101786.28;5031428;28;20142;-83
2024/01/27 00:58:32;;;;;;;15.60;6.07;;;;;;;4.66;80.72;101780.16;5049101;28;20048;-83
2024/01/27 01:00:59;;;;;;;17.92;6.45;;;;;;;4.57;80.71;101788.34;5039774;28;20048;-83
2024/01/27 01:03:26;;;;;;;17.77;7.07;;;;;;;4.48;80.48;101789.50;5036947;28;20103;-83
2024/01/27 01:05:53;;;;;;;18.48;8.13;;;;;;;4.52;80.24;101790.25;5048705;28;20052;-84
2024/01/27 01:08:20;;;;;;;19.98;8.32;;;;;;;4.44;80.03;101797.53;5037904;28;20100;-83
2024/01/27 01:10:47;;;;;;;18.88;8.48;;;;;;;4.37;80.38;101798.63;5046311;28;20554;-83
2024/01/27 01:13:14;;;;;;;22.23;8.88;;;;;;;4.34;80.48;101797.81;5028847;28;20053;-83
2024/01/27 01:15:41;;;;;;;27.92;9.48;;;;;;;4.25;81.00;101807.75;5017756;28;20049;-83
2024/01/27 01:18:08;;;;;;;22.13;9.32;;;;;;;4.27;81.12;101813.81;5042706;28;20131;-83
2024/01/27 01:20:35;;;;;;;17.27;7.93;;;;;;;4.29;81.24;101825.16;5031544;28;20037;-83
2024/01/27 01:23:02;;;;;;;14.55;6.97;;;;;;;4.39;80.99;101826.59;5021361;28;20095;-83
2024/01/27 01:25:29;;;;;;;17.20;7.47;;;;;;;4.37;80.55;101828.41;5021974;28;20053;-83
2024/01/27 01:27:56;;;;;;;17.42;6.28;;;;;;;4.38;80.41;101819.63;5042952;28;20054;-83
2024/01/27 01:30:23;;;;;;;15.90;6.63;;;;;;;4.33;80.84;101813.66;5024537;28;20510;-82
2024/01/27 01:32:50;;;;;;;21.73;6.82;;;;;;;4.32;80.70;101817.16;5047186;28;20135;-83
2024/01/27 01:35:17;;;;;;;12.65;6.10;;;;;;;4.20;80.95;101820.16;5034189;28;20404;-83
2024/01/27 01:37:44;;;;;;;14.05;5.40;;;;;;;4.21;81.29;101820.13;5021329;28;20467;-83
2024/01/27 01:40:12;;;;;;;14.50;5.80;;;;;;;4.13;80.83;101830.03;4998800;28;20090;-83
2024/01/27 01:42:39;;;;;;;20.70;6.18;;;;;;;4.18;80.95;101838.63;5032782;28;20496;-83
2024/01/27 01:45:06;;;;;;;12.40;6.55;;;;;;;4.20;80.53;101836.84;5017904;28;20048;-83
2024/01/27 01:47:33;;;;;;;14.35;5.32;;;;;;;4.20;80.38;101847.34;5033254;28;20045;-83
2024/01/27 01:50:00;;;;;;;16.67;5.85;;;;;;;4.18;80.39;101845.69;5046276;28;20066;-83
2024/01/27 01:52:27;;;;;;;11.13;5.93;;;;;;;4.29;79.29;101848.84;5047930;28;20048;-83
2024/01/27 01:54:54;;;;;;;13.82;7.18;;;;;;;4.20;79.54;101855.25;5048465;28;20045;-84
2024/01/27 01:57:20;;;;;;;19.65;6.68;;;;;;;4.02;80.93;101859.25;5032293;28;20424;-83
2024/01/27 01:59:47;;;;;;;13.63;8.15;;;;;;;4.08;81.78;101856.44;5049997;28;20045;-83
2024/01/27 02:02:16;;;;;;;21.05;6.97;;;;;;;3.97;81.12;101876.94;5019572;28;20118;-84
2024/01/27 02:04:44;;;;;;;15.57;6.55;;;;;;;4.04;80.41;101867.94;5033266;28;20419;-83
2024/01/27 02:07:11;;;;;;;15.32;5.93;;;;;;;4.10;79.69;101862.53;5017137;28;20988;-83
2024/01/27 02:09:38;;;;;;;18.20;6.40;;;;;;;4.12;79.26;101868.59;5018757;28;20053;-83
2024/01/27 02:12:05;;;;;;;13.10;6.03;;;;;;;4.12;79.44;101872.97;5049129;28;20036;-83
2024/01/27 02:14:32;;;;;;;20.27;6.05;;;;;;;4.11;79.28;101882.66;5036651;28;20080;-83
2024/01/27 02:16:59;;;;;;;17.20;5.88;;;;;;;4.05;79.66;101876.72;5035114;28;20040;-84
2024/01/27 02:19:25;;;;;;;28.05;8.32;;;;;;;4.03;81.06;101874.13;5036720;28;20045;-83
2024/01/27 02:21:52;;;;;;;28.63;9.40;;;;;;;3.97;83.30;101879.56;5009560;28;20487;-83
2024/01/27 02:24:19;;;;;;;39.15;9.80;;;;;;;4.13;83.51;101882.63;5018878;28;20041;-83
2024/01/27 02:26:46;;;;;;;64.82;12.98;;;;;;;4.10;83.66;101880.06;5006142;28;20045;-83
2024/01/27 02:29:13;;;;;;;39.15;9.32;;;;;;;4.02;84.17;101885.56;5032528;28;20130;-83
2024/01/27 02:31:39;;;;;;;64.35;10.85;;;;;;;4.03;84.73;101884.63;5022390;28;20506;-84
2024/01/27 02:34:06;;;;;;;35.45;8.35;;;;;;;3.99;84.93;101884.75;5023102;28;20099;-83
2024/01/27 02:36:33;;;;;;;52.90;7.43;;;;;;;4.04;83.76;101885.50;5042833;28;20497;-84
2024/01/27 02:39:00;;;;;;;24.83;6.53;;;;;;;3.96;83.16;101883.06;5033575;28;20080;-84
2024/01/27 02:41:27;;;;;;;31.38;6.00;;;;;;;3.96;82.76;101880.44;5036883;28;20047;-83
2024/01/27 02:43:54;;;;;;;18.48;5.88;;;;;;;3.97;83.48;101886.56;5009794;28;20763;-83
2024/01/27 02:46:21;;;;;;;16.30;6.90;;;;;;;3.85;84.79;101880.75;5041642;28;20131;-83
2024/01/27 02:48:47;;;;;;;38.33;7.10;;;;;;;3.73;86.79;101877.59;5036019;28;20115;-83
2024/01/27 02:51:19;;;;;;;65.85;8.00;;;;;;;3.85;85.40;101872.03;5019534;28;20048;-83
2024/01/27 02:53:46;;;;;;;31.17;7.45;;;;;;;3.74;85.84;101880.19;5024440;28;20044;-83
2024/01/27 02:56:13;;;;;;;27.70;7.25;;;;;;;3.78;85.57;101879.19;5021807;28;20059;-84
2024/01/27 02:58:41;;;;;;;34.90;7.53;;;;;;;3.73;85.83;101881.09;5039426;28;20566;-83
2024/01/27 03:01:08;;;;;;;38.55;7.47;;;;;;;3.73;85.86;101882.88;5037444;28;20075;-83
2024/01/27 03:03:36;;;;;;;22.75;7.38;;;;;;;3.70;86.23;101891.69;5027061;28;20128;-83
2024/01/27 03:06:02;;;;;;;33.72;7.70;;;;;;;3.71;87.04;101890.78;5016952;28;20045;-83
2024/01/27 03:08:29;;;;;;;73.68;9.20;;;;;;;3.78;85.94;101886.22;5035945;28;20065;-83
2024/01/27 03:10:56;;;;;;;51.08;8.05;;;;;;;3.84;86.09;101886.94;5033017;28;20400;-84
2024/01/27 03:13:23;;;;;;;36.72;6.82;;;;;;;3.76;86.18;101893.28;5065692;28;20484;-83
2024/01/27 03:15:52;;;;;;;21.70;6.72;;;;;;;3.77;85.52;101895.88;5041823;28;20052;-83
2024/01/27 03:18:19;;;;;;;99.95;9.88;;;;;;;3.78;84.63;101897.59;5027333;28;20124;-83
2024/01/27 03:20:46;;;;;;;51.30;7.90;;;;;;;3.70;84.70;101895.16;5033276;28;20037;-83
2024/01/27 03:23:13;;;;;;;46.42;6.82;;;;;;;3.73;83.98;101894.22;5006544;28;20042;-83
2024/01/27 03:25:39;;;;;;;51.00;7.78;;;;;;;3.67;85.50;101886.53;5045379;28;20048;-83
2024/01/27 03:28:06;;;;;;;87.43;9.18;;;;;;;3.58;85.40;101892.00;5048286;28;20067;-83
2024/01/27 03:30:33;;;;;;;60.45;7.43;;;;;;;3.51;87.19;101898.31;5040668;28;20747;-84
2024/01/27 03:33:00;;;;;;;47.47;7.45;;;;;;;3.56;86.91;101897.31;5022887;28;20430;-84
2024/01/27 03:35:27;;;;;;;76.60;8.73;;;;;;;3.47;86.36;101898.41;5013037;28;20038;-83
2024/01/27 03:37:54;;;;;;;62.85;8.90;;;;;;;3.41;86.58;101905.56;5038174;28;20061;-83
2024/01/27 03:40:20;;;;;;;82.55;8.98;;;;;;;3.52;86.46;101911.44;5026238;28;20041;-84
2024/01/27 03:42:47;;;;;;;17.30;5.53;;;;;;;3.42;87.04;101909.94;5008922;28;20052;-84
2024/01/27 03:45:14;;;;;;;23.20;6.68;;;;;;;3.37;87.81;101914.44;5036384;28;20149;-84
2024/01/27 03:47:41;;;;;;;21.48;6.85;;;;;;;3.32;88.21;101921.56;5025271;28;20049;-83
2024/01/27 03:50:08;;;;;;;26.52;6.10;;;;;;;3.34;88.48;101914.53;5037207;28;20045;-83
2024/01/27 03:52:35;;;;;;;27.65;6.68;;;;;;;3.44;88.39;101905.50;5031405;28;20124;-84
2024/01/27 03:55:02;;;;;;;27.15;5.75;;;;;;;3.38;88.72;101906.50;5031588;28;20049;-84
2024/01/27 03:57:29;;;;;;;19.65;6.03;;;;;;;3.41;88.21;101897.69;5049705;28;20042;-83
2024/01/27 03:59:56;;;;;;;40.85;6.72;;;;;;;3.36;89.20;101912.69;5056825;28;20165;-83
2024/01/27 04:02:22;;;;;;;22.92;5.85;;;;;;;3.36;88.53;101916.22;5022868;28;20048;-83
2024/01/27 04:04:49;;;;;;;24.73;5.90;;;;;;;3.36;87.92;101918.84;5009796;28;20116;-83
2024/01/27 04:07:16;;;;;;;23.25;6.78;;;;;;;3.35;87.40;101921.50;5049862;28;20054;-84
2024/01/27 04:09:43;;;;;;;43.30;6.95;;;;;;;3.29;88.46;101914.63;5018863;28;20759;-83
2024/01/27 04:12:10;;;;;;;31.88;7.15;;;;;;;3.36;87.55;101924.09;5022944;28;20119;-83
2024/01/27 04:14:36;;;;;;;24.90;6.50;;;;;;;3.32;87.40;101926.81;5024376;28;20037;-83
2024/01/27 04:17:03;;;;;;;22.88;7.07;;;;;;;3.32;87.18;101929.44;5015819;28;20044;-83
2024/01/27 04:19:30;;;;;;;59.92;7.20;;;;;;;3.33;86.96;101925.91;5019457;28;20516;-84
2024/01/27 04:21:57;;;;;;;46.78;6.28;;;;;;;3.31;87.01;101931.22;5020011;28;20107;-84
2024/01/27 04:24:24;;;;;;;28.67;6.85;;;;;;;3.35;86.80;101932.84;5035734;28;20033;-83
2024/01/27 04:26:50;;;;;;;24.88;6.93;;;;;;;3.31;86.93;101938.22;5039823;28;20045;-84
2024/01/27 04:29:17;;;;;;;51.33;7.28;;;;;;;3.30;85.68;101939.97;5041266;28;20049;-83
2024/01/27 04:31:44;;;;;;;17.75;7.00;;;;;;;3.28;86.16;101948.78;5051914;28;20488;-84
2024/01/27 04:34:11;;;;;;;46.63;7.40;;;;;;;3.28;85.56;101947.03;5051005;28;20163;-84
2024/01/27 04:36:38;;;;;;;35.85;6.82;;;;;;;3.23;86.46;101946.28;5036102;28;20096;-83
2024/01/27 04:39:05;;;;;;;18.63;5.68;;;;;;;3.19;86.36;101949.91;5030200;28;20046;-84
2024/01/27 04:41:32;;;;;;;49.58;7.50;;;;;;;3.15;86.02;101956.97;5020898;28;20108;-83
2024/01/27 04:43:59;;;;;;;13.23;5.00;;;;;;;3.21;86.08;101964.72;5046040;28;20061;-83
2024/01/27 04:46:26;;;;;;;36.70;6.70;;;;;;;3.15;85.96;101958.72;5017094;28;21074;-83
2024/01/27 04:48:52;;;;;;;13.43;6.72;;;;;;;3.12;85.92;101961.44;5039952;28;20044;-83
2024/01/27 04:51:19;;;;;;;32.20;6.25;;;;;;;2.99;86.99;101966.09;5029303;28;20052;-82
2024/01/27 04:53:46;;;;;;;19.17;5.30;;;;;;;3.04;86.36;101967.72;4987125;28;20037;-83
2024/01/27 04:56:13;;;;;;;26.83;5.65;;;;;;;3.07;85.36;101974.66;5037063;28;20049;-83
2024/01/27 04:58:40;;;;;;;13.75;5.88;;;;;;;3.05;85.53;101968.56;5016376;28;20092;-83
2024/01/27 05:01:08;;;;;;;21.08;6.22;;;;;;;3.03;86.10;101968.63;5018666;28;20140;-83
2024/01/27 05:03:35;;;;;;;29.98;6.15;;;;;;;3.00;86.94;101967.81;5013112;28;20116;-83
2024/01/27 05:06:03;;;;;;;37.58;5.63;;;;;;;2.98;87.52;101967.88;5032121;28;20503;-83
2024/01/27 05:08:30;;;;;;;35.03;6.93;;;;;;;2.93;87.79;101958.38;5016707;28;20412;-83
2024/01/27 05:10:56;;;;;;;24.95;5.45;;;;;;;2.90;87.42;101967.19;5020749;28;20581;-83
2024/01/27 05:13:25;;;;;;;52.42;7.10;;;;;;;2.82;87.33;101969.09;5046848;28;20749;-83
2024/01/27 05:15:51;;;;;;;28.13;6.57;;;;;;;2.77;87.66;101965.69;5023567;28;20499;-83
2024/01/27 05:18:18;;;;;;;88.88;10.48;;;;;;;2.72;87.35;101967.56;5006953;28;20552;-83
2024/01/27 05:20:45;;;;;;;9.45;5.05;;;;;;;2.79;87.63;101964.78;5020230;28;20120;-83
2024/01/27 05:23:12;;;;;;;45.85;6.30;;;;;;;2.73;86.72;101970.16;5028274;28;20163;-83
2024/01/27 05:25:39;;;;;;;28.38;6.18;;;;;;;2.79;87.26;101977.88;5034739;28;20056;-83
2024/01/27 05:28:06;;;;;;;26.33;6.80;;;;;;;2.77;87.24;101981.44;5007928;28;20041;-84
2024/01/27 05:30:33;;;;;;;57.67;6.40;;;;;;;2.94;86.92;101984.56;5003136;28;20440;-83
2024/01/27 05:33:00;;;;;;;35.17;6.10;;;;;;;2.89;86.85;101982.94;5021832;28;20044;-83
2024/01/27 05:35:27;;;;;;;17.77;5.45;;;;;;;2.93;86.76;101987.25;5030234;28;20060;-84
2024/01/27 05:37:54;;;;;;;14.80;5.22;;;;;;;2.82;87.78;101983.09;5022438;28;20612;-84
2024/01/27 05:40:20;;;;;;;56.63;7.07;;;;;;;2.71;88.25;101985.06;5044743;28;20057;-83
2024/01/27 05:42:49;;;;;;;33.47;5.82;;;;;;;2.79;88.16;101980.50;5015950;28;20579;-83
2024/01/27 05:45:15;;;;;;;46.20;6.82;;;;;;;2.75;88.96;101978.88;5021536;28;20053;-84
2024/01/27 05:47:42;;;;;;;17.65;5.82;;;;;;;2.79;90.16;101980.50;5045390;28;20689;-84
2024/01/27 05:50:10;;;;;;;27.02;6.03;;;;;;;2.80;89.25;101987.50;5015305;28;20127;-84
2024/01/27 05:52:36;;;;;;;12.48;5.70;;;;;;;2.78;88.80;101980.56;5029615;28;20064;-83
2024/01/27 05:55:06;;;;;;;33.17;6.15;;;;;;;2.79;87.44;101982.28;5028093;28;20404;-84
2024/01/27 05:57:33;;;;;;;13.65;5.88;;;;;;;2.79;87.85;101982.28;5038972;28;20053;-84
2024/01/27 06:00:00;;;;;;;22.92;5.55;;;;;;;2.75;89.27;101994.63;4991052;28;20045;-83
2024/01/27 06:02:30;;;;;;;23.92;6.13;;;;;;;2.81;88.12;101991.00;5059238;28;20827;-84
2024/01/27 06:04:57;;;;;;;26.27;5.90;;;;;;;2.77;87.39;101990.19;5005047;28;20052;-84
2024/01/27 06:07:24;;;;;;;10.65;4.93;;;;;;;2.82;86.92;101993.59;5015411;28;20124;-84
2024/01/27 06:09:51;;;;;;;54.75;8.38;;;;;;;2.76;87.10;101996.31;5023422;28;20048;-84
2024/01/27 06:12:18;;;;;;;46.75;7.00;;;;;;;2.80;86.91;101992.75;5035515;28;20144;-84
2024/01/27 06:14:45;;;;;;;22.88;6.15;;;;;;;2.75;86.47;101993.75;5026849;28;20915;-84
2024/01/27 06:17:14;;;;;;;26.55;6.20;;;;;;;2.66;86.24;101989.56;5045696;28;20048;-84
2024/01/27 06:19:41;;;;;;;21.20;6.35;;;;;;;2.73;86.03;101987.66;5028708;28;20397;-84
2024/01/27 06:22:08;;;;;;;23.52;6.30;;;;;;;2.69;85.57;101980.75;5044582;28;20477;-84
2024/01/27 06:24:35;;;;;;;20.50;5.75;;;;;;;2.71;86.13;101987.69;5016056;28;20120;-84
2024/01/27 06:27:02;;;;;;;25.10;6.70;;;;;;;2.73;85.19;101985.91;5010613;28;20048;-84
2024/01/27 06:29:29;;;;;;;43.08;6.30;;;;;;;2.66;85.34;101988.69;5038400;28;20045;-84
2024/01/27 06:31:56;;;;;;;42.13;7.97;;;;;;;2.75;85.68;101988.50;5033436;28;20130;-84
2024/01/27 06:34:22;;;;;;;13.32;6.00;;;;;;;2.65;85.12;101995.69;5003955;28;20409;-84
2024/01/27 06:36:49;;;;;;;19.83;5.60;;;;;;;2.76;84.75;102003.34;5062182;28;20041;-84
2024/01/27 06:39:16;;;;;;;16.88;6.63;;;;;;;2.57;85.79;102008.09;5005276;28;20064;-84
2024/01/27 06:41:43;;;;;;;21.70;6.60;;;;;;;2.44;86.16;102015.34;5009174;28;20540;-83
2024/01/27 06:44:10;;;;;;;17.45;4.63;;;;;;;2.57;85.13;102014.22;5046315;28;20053;-84
2024/01/27 06:46:36;;;;;;;21.70;6.22;;;;;;;2.63;84.76;102007.13;5052095;28;20839;-84
2024/01/27 06:49:03;;;;;;;19.90;6.80;;;;;;;2.42;86.45;102006.66;5024204;28;20052;-84
2024/01/27 06:51:30;;;;;;;16.33;6.03;;;;;;;2.58;85.37;102001.97;5045317;28;20046;-84
2024/01/27 06:53:57;;;;;;;17.13;6.40;;;;;;;2.47;85.58;101996.06;5019364;28;20160;-84
2024/01/27 06:56:24;;;;;;;18.55;5.70;;;;;;;2.54;85.86;101998.53;5011911;28;20096;-84
2024/01/27 06:58:50;;;;;;;19.13;6.13;;;;;;;2.60;85.62;102002.81;5029908;28;20040;-84
2024/01/27 07:01:17;;;;;;;30.80;7.18;;;;;;;2.61;85.07;102015.00;5035391;28;20044;-84
2024/01/27 07:03:44;;;;;;;12.98;4.95;;;;;;;2.67;84.58;102014.00;5030621;28;20128;-84
2024/01/27 07:06:11;;;;;;;21.80;6.57;;;;;;;2.50;84.77;102020.47;5013265;28;20045;-84
2024/01/27 07:08:38;;;;;;;18.80;6.30;;;;;;;2.48;84.88;102024.88;5037408;28;20048;-84
2024/01/27 07:11:05;;;;;;;30.92;7.05;;;;;;;2.46;85.99;102023.19;4994158;28;20045;-84
2024/01/27 07:13:32;;;;;;;35.22;6.53;;;;;;;2.46;85.56;102025.81;5010221;28;20072;-84
2024/01/27 07:15:59;;;;;;;48.80;15.25;;;;;;;2.33;86.84;102028.66;5017197;28;20047;-83
2024/01/27 07:18:26;;;;;;;39.25;8.40;;;;;;;2.37;87.76;102032.09;5023050;28;20052;-84
2024/01/27 07:20:54;;;;;;;19.50;6.43;;;;;;;2.45;86.03;102038.06;5032260;28;20770;-84
2024/01/27 07:23:21;;;;;;;13.85;6.22;;;;;;;2.36;87.39;102036.47;5048928;28;20041;-84
2024/01/27 07:25:48;;;;;;;16.48;7.22;;;;;;;2.38;88.15;102034.69;5047866;28;20515;-84
2024/01/27 07:28:16;;;;;;;29.85;7.05;;;;;;;2.27;89.29;102038.41;5013835;28;20041;-84
2024/01/27 07:30:42;;;;;;;19.92;6.50;;;;;;;2.30;88.47;102035.72;5018384;28;20071;-84
2024/01/27 07:33:09;;;;;;;26.40;7.22;;;;;;;2.29;88.46;102036.59;5036409;28;20045;-84
2024/01/27 07:35:36;;;;;;;23.30;7.28;;;;;;;2.28;88.16;102046.22;5036563;28;20049;-84
2024/01/27 07:38:03;;;;;;;19.95;6.88;;;;;;;2.38;87.87;102045.16;5052175;28;20037;-84
2024/01/27 07:40:30;;;;;;;19.50;7.25;;;;;;;2.42;87.34;102050.34;5024304;28;20038;-84
2024/01/27 07:42:57;;;;;;;19.30;9.05;;;;;;;2.34;89.05;102050.50;5034819;28;20052;-85
2024/01/27 07:45:23;;;;;;;47.30;10.98;;;;;;;2.38;89.58;102045.16;5019983;28;20145;-83
2024/01/27 07:47:50;;;;;;;29.50;8.98;;;;;;;2.48;89.12;102042.38;5052212;28;20045;-84
2024/01/27 07:50:17;;;;;;;20.20;8.35;;;;;;;2.52;89.02;102044.91;5049760;28;20061;-84
2024/01/27 07:52:44;;;;;;;25.83;7.95;;;;;;;2.41;88.50;102038.16;5022637;28;20114;-84
2024/01/27 07:55:11;;;;;;;40.88;8.57;;;;;;;2.34;86.72;102043.53;5008725;28;20120;-84
2024/01/27 07:57:37;;;;;;;27.38;8.18;;;;;;;2.37;87.67;102040.84;5040877;28;20049;-84
2024/01/27 08:00:06;;;;;;;28.35;8.15;;;;;;;2.30;87.66;102039.22;5034711;28;20098;-84
2024/01/27 08:02:33;;;;;;;36.92;8.45;;;;;;;2.20;87.32;102029.78;5031385;28;20579;-84
2024/01/27 08:04:59;;;;;;;28.88;7.18;;;;;;;2.34;87.32;102026.91;5028695;28;20396;-84
2024/01/27 08:07:26;;;;;;;19.40;7.63;;;;;;;2.24;87.32;102026.22;5019601;28;20045;-84
2024/01/27 08:09:53;;;;;;;17.25;7.15;;;;;;;2.39;87.74;102033.81;5037501;28;20456;-84
2024/01/27 08:12:20;;;;;;;16.15;7.25;;;;;;;2.37;87.11;102040.84;5020318;28;20041;-84
2024/01/27 08:14:47;;;;;;;32.97;8.32;;;;;;;2.36;86.60;102038.22;5025392;28;20064;-84
2024/01/27 08:17:14;;;;;;;26.98;8.70;;;;;;;2.31;85.89;102037.44;5063136;28;20141;-85
2024/01/27 08:19:41;;;;;;;21.88;8.50;;;;;;;2.37;87.21;102048.69;5005493;28;20064;-84
2024/01/27 08:22:09;;;;;;;20.02;7.95;;;;;;;2.39;86.87;102049.53;5032607;28;20052;-85
2024/01/27 08:24:36;;;;;;;17.13;6.95;;;;;;;2.36;86.51;102052.19;5032718;28;20049;-85
2024/01/27 08:27:03;;;;;;;19.95;7.07;;;;;;;2.37;85.35;102059.19;5038719;28;20748;-86
2024/01/27 08:29:30;;;;;;;34.67;8.45;;;;;;;2.35;85.07;102057.47;5063630;28;20051;-85
2024/01/27 08:31:57;;;;;;;27.38;5.95;;;;;;;2.36;85.34;102059.19;5040165;28;20060;-86
2024/01/27 08:34:24;;;;;;;36.05;8.13;;;;;;;2.35;85.58;102053.09;5008092;28;20059;-86
2024/01/27 08:36:51;;;;;;;22.33;8.00;;;;;;;2.36;84.73;102052.19;5052015;28;20095;-86
2024/01/27 08:39:18;;;;;;;60.72;8.68;;;;;;;2.22;85.68;102048.97;5021249;28;20744;-86
2024/01/27 08:41:45;;;;;;;32.88;6.97;;;;;;;2.16;86.48;102060.44;5008166;28;20043;-85
2024/01/27 08:44:12;;;;;;;25.35;7.03;;;;;;;2.20;86.99;102052.53;5022352;28;20045;-86
2024/01/27 08:46:39;;;;;;;58.45;7.78;;;;;;;2.18;87.20;102058.63;5002663;28;20427;-85
2024/01/27 08:49:05;;;;;;;21.40;6.93;;;;;;;2.19;88.66;102054.28;5028903;28;20049;-86
2024/01/27 08:51:32;;;;;;;27.17;6.47;;;;;;;2.27;88.85;102056.78;5034053;28;20045;-86
2024/01/27 08:53:59;;;;;;;42.83;8.75;;;;;;;2.26;87.03;102061.13;5008021;28;20045;-83
2024/01/27 08:56:26;;;;;;;39.22;7.88;;;;;;;2.26;87.81;102058.50;5046499;28;20791;-86
2024/01/27 08:58:53;;;;;;;37.47;7.70;;;;;;;2.30;87.11;102060.19;5039531;28;20072;-86
2024/01/27 09:01:20;;;;;;;18.67;7.22;;;;;;;2.25;86.97;102054.16;5034943;28;20049;-86
2024/01/27 09:03:47;;;;;;;32.20;6.57;;;;;;;2.24;87.67;102055.06;5029337;28;20056;-85
2024/01/27 09:06:14;;;;;;;61.67;8.82;;;;;;;2.21;88.35;102055.09;5023243;28;20404;-85
2024/01/27 09:08:41;;;;;;;73.53;9.45;;;;;;;2.39;87.77;102064.38;5033358;28;20464;-86
2024/01/27 09:11:09;;;;;;;14.95;6.85;;;;;;;2.37;87.44;102063.56;5019567;28;20045;-86
2024/01/27 09:13:36;;;;;;;25.08;7.65;;;;;;;2.33;87.75;102067.13;5046577;28;20057;-86
2024/01/27 09:16:02;;;;;;;29.27;6.43;;;;;;;2.37;87.91;102060.94;5021151;28;20042;-86
2024/01/27 09:18:29;;;;;;;38.35;8.13;;;;;;;2.37;88.14;102061.81;5028634;28;20135;-86
2024/01/27 09:20:56;;;;;;;32.30;8.30;;;;;;;2.29;88.32;102062.81;5038645;28;20042;-85
2024/01/27 09:23:23;;;;;;;57.42;9.50;;;;;;;2.29;88.02;102061.09;5032578;28;20128;-86
2024/01/27 09:25:50;;;;;;;55.05;11.82;;;;;;;2.33;87.62;102059.25;5004685;28;20037;-86
2024/01/27 09:28:17;;;;;;;34.05;12.70;;;;;;;2.29;89.11;102062.81;5034409;28;20053;-85
2024/01/27 09:30:44;;;;;;;33.10;15.88;;;;;;;2.37;89.53;102066.19;5017851;28;20706;-86
2024/01/27 09:33:11;;;;;;;30.27;12.30;;;;;;;2.42;89.53;102077.47;5021205;28;20052;-86
2024/01/27 09:35:38;;;;;;;25.52;11.65;;;;;;;2.45;89.68;102072.16;5048006;28;20135;-85
2024/01/27 09:38:09;;;;;;;26.50;10.45;;;;;;;2.41;90.16;102069.59;5008744;28;20048;-85
2024/01/27 09:40:36;;;;;;;37.05;11.13;;;;;;;2.39;90.92;102062.66;5026484;28;20060;-86
2024/01/27 09:43:02;;;;;;;41.08;12.00;;;;;;;2.48;89.18;102071.22;5017426;28;20121;-86
2024/01/27 09:45:29;;;;;;;48.45;10.68;;;;;;;2.36;89.59;102073.16;5064657;28;20053;-83
2024/01/27 09:47:57;;;;;;;28.52;9.80;;;;;;;2.34;90.74;102087.19;5013264;28;20045;-86
2024/01/27 09:50:25;;;;;;;40.85;10.50;;;;;;;2.33;92.48;102088.09;5030985;28;20037;-86
2024/01/27 09:52:52;;;;;;;51.22;11.27;;;;;;;2.43;91.00;102080.94;4993622;28;20059;-87
2024/01/27 09:55:19;;;;;;;34.83;10.52;;;;;;;2.41;91.60;102085.34;5046688;28;20092;-86
2024/01/27 09:57:46;;;;;;;41.95;10.23;;;;;;;2.47;90.44;102087.84;5030124;28;20511;-86
2024/01/27 10:00:13;;;;;;;22.90;9.77;;;;;;;2.49;90.71;102089.53;5015982;28;20127;-86
2024/01/27 10:02:41;;;;;;;22.90;9.60;;;;;;;2.45;91.86;102087.88;5012541;28;20046;-87
2024/01/27 10:05:09;;;;;;;22.20;9.65;;;;;;;2.51;91.37;102095.63;5006807;28;20077;-86
2024/01/27 10:07:36;;;;;;;21.33;9.45;;;;;;;2.57;92.49;102092.00;5000973;28;20115;-87
2024/01/27 10:10:03;;;;;;;19.80;9.70;;;;;;;2.57;93.68;102095.53;5035301;28;20037;-88
2024/01/27 10:12:31;;;;;;;21.13;10.15;;;;;;;2.62;93.46;102095.44;5000170;28;20049;-85
2024/01/27 10:14:58;;;;;;;28.73;12.32;;;;;;;2.70;92.90;102087.44;5013677;28;20958;-84
2024/01/27 10:17:28;;;;;;;27.92;12.50;;;;;;;2.73;92.83;102079.50;5016062;28;25870;-83
2024/01/27 10:20:07;;;;;;;36.58;16.15;;;;;;;2.76;92.61;102088.16;5042373;28;20065;-84
2024/01/27 10:22:39;;;;;;;45.47;15.32;;;;;;;2.79;93.73;102087.22;5067252;28;20068;-84
2024/01/27 10:25:09;;;;;;;36.20;16.42;;;;;;;2.86;92.88;102083.59;5027836;28;20757;-84
2024/01/27 10:27:36;;;;;;;37.95;16.80;;;;;;;2.86;92.23;102083.59;5031735;28;20782;-85
2024/01/27 10:30:04;;;;;;;33.47;15.40;;;;;;;2.85;92.33;102079.25;5014628;28;20083;-87
2024/01/27 10:32:31;;;;;;;47.92;16.17;;;;;;;2.86;92.85;102077.47;5048460;28;20094;-85
2024/01/27 10:35:08;;;;;;;40.10;14.57;;;;;;;2.86;92.96;102080.09;5000304;28;20427;-83
2024/01/27 10:37:35;;;;;;;58.38;14.63;;;;;;;2.91;93.05;102075.63;5028960;28;20045;-85
2024/01/27 10:40:03;;;;;;;34.65;13.27;;;;;;;2.91;92.22;102070.38;5024234;28;20408;-84
2024/01/27 10:42:31;;;;;;;39.45;14.88;;;;;;;2.91;92.04;102073.88;5049223;28;20044;-84
2024/01/27 10:45:02;;;;;;;30.25;13.90;;;;;;;2.92;92.68;102066.84;5036968;28;20056;-85
2024/01/27 10:47:31;;;;;;;29.80;14.32;;;;;;;2.97;93.08;102076.34;5038124;28;20045;-85
2024/01/27 10:49:59;;;;;;;39.13;13.82;;;;;;;2.94;93.59;102063.28;5046881;28;20668;-85
2024/01/27 10:52:32;;;;;;;32.67;13.57;;;;;;;2.95;92.11;102051.91;5020553;28;20416;-85
2024/01/27 10:55:03;;;;;;;47.38;15.52;;;;;;;2.97;92.92;102052.72;5017861;28;20053;-85
2024/01/27 10:57:30;;;;;;;30.15;14.18;;;;;;;3.04;93.15;102058.72;5041134;28;20049;-86
2024/01/27 10:59:57;;;;;;;33.20;15.80;;;;;;;3.06;93.29;102056.06;5032030;28;20580;-85
2024/01/27 11:02:25;;;;;;;26.98;13.18;;;;;;;3.10;93.13;102042.81;5035177;28;20037;-85
2024/01/27 11:04:54;;;;;;;29.98;12.52;;;;;;;3.12;92.57;102038.41;5024176;28;20048;-85
2024/01/27 11:07:24;;;;;;;33.25;15.20;;;;;;;3.07;93.11;102035.03;5026005;28;20758;-85
2024/01/27 11:09:51;;;;;;;31.77;15.68;;;;;;;3.13;93.50;102024.41;5025538;28;20042;-86
2024/01/27 11:12:19;;;;;;;34.17;18.45;;;;;;;3.20;93.31;102025.97;5035993;28;20048;-85
2024/01/27 11:14:47;;;;;;;29.48;14.10;;;;;;;3.24;93.52;102026.78;5044171;28;20053;-85
2024/01/27 11:17:15;;;;;;;30.60;14.57;;;;;;;3.30;93.50;102020.53;5037312;28;20036;-86
2024/01/27 11:19:43;;;;;;;26.20;12.55;;;;;;;3.34;93.13;102012.53;5011024;28;20041;-85
2024/01/27 11:22:25;;;;;;;27.90;12.98;;;;;;;3.33;93.42;102004.69;5011358;28;20562;-86
2024/01/27 11:24:53;;;;;;;29.23;13.50;;;;;;;3.42;93.09;102007.97;5037700;28;20496;-85